Aviation Digital Data Service (ADDS)

Output produced by METARs form (0327 UTC 30 May 2017)
found at http://www.aviationweather.gov/adds/metars/
 
MGGT 291700Z 2918/3018 17008KT 9999 SCT018 BKN100 TX27/2920Z TN18/3012Z 
     TEMPO 2918/3004 14012KT 8000 TSRA SCT020TCU FEW025CB 
     BECMG 3001/3003 18006KT 8000 SCT016 
     PROB40 
     TEMPO 3008/3015 00000KT 5000 BR BKN012 
     BECMG 3015/3017 17008KT SCT018
       
MGMM 291700Z 2918/3018 08008KT 9999 FEW018 SCT100 TX36/2920Z TN22/3012Z 
     TEMPO 2920/3002 12008KT SCT020TCU FEW025CB 
     BECMG 3002/3004 00000KT FEW016 
     BECMG 3015/3017 09008KT SCT018
       
MGPB 291700Z 2918/3018 06008KT 9999 SCT018 BKN100 TX31/2920Z TN24/3012Z 
     TEMPO 2918/3004 8000 VCTSRA SCT020TCU FEW025CB 
     BECMG 3001/3003 00000KT SCT016 
     TEMPO 3003/3015 BKN016 
     BECMG 3015/3017 05008KT SCT018
       
MGSJ 291700Z 2918/3018 17008KT 9999 FEW020 TX33/2920Z TN24/3012Z 
     PROB30 
     TEMPO 2920/3004 15012KT 8000 VCTSRA SCT020TCU FEW025CB 
     BECMG 3001/3003 00000KT FEW016 
     BECMG 3015/3017 18008KT FEW020
       
MGGT 291700Z 2918/3018 17008KT 9999 SCT018 BKN100 TX27/2920Z TN18/3012Z 
     TEMPO 2918/3004 14012KT 8000 TSRA SCT020TCU FEW025CB 
     BECMG 3001/3003 18006KT 8000 SCT016 
     PROB40 
     TEMPO 3008/3015 00000KT 5000 BR BKN012 
     BECMG 3015/3017 17008KT SCT018
       
MGPB 291700Z 2918/3018 06008KT 9999 SCT018 BKN100 TX31/2920Z TN24/3012Z 
     TEMPO 2918/3004 8000 VCTSRA SCT020TCU FEW025CB 
     BECMG 3001/3003 00000KT SCT016 
     TEMPO 3003/3015 BKN016 
     BECMG 3015/3017 05008KT SCT018
       
MGSJ 291700Z 2918/3018 17008KT 9999 FEW020 TX33/2920Z TN24/3012Z 
     PROB30 
     TEMPO 2920/3004 15012KT 8000 VCTSRA SCT020TCU FEW025CB 
     BECMG 3001/3003 00000KT FEW016 
     BECMG 3015/3017 18008KT FEW020